createdAt,value
2022-11-15T08:40:36.003Z,102.32
2022-11-15T08:41:36.097Z,102.80
2022-11-15T08:42:37.150Z,102.96
2022-11-15T08:43:36.177Z,102.00
2022-11-15T08:44:38.075Z,103.45
2022-11-15T08:45:35.795Z,102.64
2022-11-15T08:46:36.640Z,104.09
2022-11-15T08:47:43.068Z,103.45
2022-11-15T08:48:36.785Z,102.48
2022-11-15T08:49:39.544Z,103.29
2022-11-15T08:50:36.140Z,102.96
2022-11-15T08:51:36.036Z,102.16
2022-11-15T08:52:41.461Z,102.16
2022-11-15T08:53:38.581Z,106.83
2022-11-15T08:54:36.902Z,106.35
2022-11-15T08:55:36.304Z,106.51
2022-11-15T08:56:38.940Z,107.31
2022-11-15T08:57:36.720Z,106.99
2022-11-15T08:58:36.001Z,107.96
2022-11-15T08:59:36.750Z,107.96
2022-11-15T09:00:36.787Z,105.70
2022-11-15T09:01:36.428Z,105.06
2022-11-15T09:02:36.085Z,105.54
2022-11-15T09:03:37.918Z,104.74
2022-11-15T09:04:40.027Z,105.06
2022-11-15T09:05:36.305Z,104.90
2022-11-15T09:06:42.102Z,105.22
2022-11-15T09:07:37.241Z,104.74
2022-11-15T09:08:51.584Z,105.06
2022-11-15T09:09:37.351Z,106.03
2022-11-15T09:10:36.240Z,104.09
2022-11-15T09:11:36.769Z,104.58
2022-11-15T09:12:35.873Z,104.09
2022-11-15T09:13:36.022Z,105.22
2022-11-15T09:14:36.420Z,103.77
2022-11-15T09:15:36.270Z,106.83
2022-11-15T09:16:35.823Z,107.15
2022-11-15T09:17:38.714Z,107.48
2022-11-15T09:18:36.022Z,106.51
2022-11-15T09:19:37.320Z,106.35
2022-11-15T09:20:38.701Z,106.67
2022-11-15T09:21:36.124Z,105.38
2022-11-15T09:22:41.555Z,105.54
2022-11-15T09:23:38.001Z,104.74
2022-11-15T09:24:35.525Z,105.86
2022-11-15T09:25:36.397Z,106.19
2022-11-15T09:26:36.029Z,106.03
2022-11-15T09:27:36.240Z,104.25
2022-11-15T09:28:36.638Z,67.51
2022-11-15T09:29:36.287Z,69.77
2022-11-15T09:30:36.340Z,69.13
2022-11-15T09:31:37.185Z,68.16
2022-11-15T09:32:39.371Z,66.71
2022-11-15T09:33:37.509Z,66.39
2022-11-15T09:34:38.547Z,68.00
2022-11-15T09:35:37.385Z,71.54
2022-11-15T09:36:36.072Z,68.80
2022-11-15T09:37:36.247Z,68.32
2022-11-15T09:38:36.793Z,73.96
2022-11-15T09:39:37.435Z,69.29
2022-11-15T09:40:36.739Z,67.84
2022-11-15T09:41:40.194Z,70.42
2022-11-15T09:42:39.204Z,68.48
2022-11-15T09:43:37.839Z,68.80
2022-11-15T09:44:36.119Z,82.18
2022-11-15T09:45:36.058Z,68.48
2022-11-15T09:46:41.824Z,68.32
2022-11-15T09:47:37.780Z,73.48
2022-11-15T09:48:37.809Z,68.00
2022-11-15T09:49:36.404Z,67.35
2022-11-15T09:50:36.917Z,73.80
2022-11-15T09:51:44.674Z,73.48
2022-11-15T09:52:41.018Z,74.44
2022-11-15T09:54:52.923Z,69.77
2022-11-15T09:55:41.962Z,69.77
2022-11-15T09:56:45.509Z,70.25
2022-11-15T09:57:35.715Z,70.58
2022-11-15T09:58:40.953Z,67.03
2022-11-15T09:59:41.674Z,67.35
2022-11-15T10:00:52.870Z,69.13
2022-11-15T10:01:45.599Z,69.61
2022-11-15T10:02:42.625Z,69.45
2022-11-15T10:03:41.113Z,77.99
2022-11-15T10:04:37.393Z,41.09
2022-11-15T10:05:40.902Z,49.79
2022-11-15T10:06:51.993Z,44.79
2022-11-15T10:07:41.863Z,101.03
2022-11-15T10:08:37.987Z,101.03
2022-11-15T10:09:36.871Z,103.45
2022-11-15T10:10:42.701Z,105.06
2022-11-15T10:11:41.040Z,103.61
2022-11-15T10:12:36.542Z,104.90
2022-11-15T10:13:36.583Z,104.74
2022-11-15T10:14:42.388Z,103.93
2022-11-15T10:15:38.632Z,104.41
2022-11-15T10:16:36.642Z,104.58
2022-11-15T10:17:37.285Z,104.41
2022-11-15T10:18:44.459Z,104.41
2022-11-15T10:19:37.516Z,102.80
2022-11-15T10:20:51.101Z,102.48
2022-11-15T10:21:58.778Z,102.80
2022-11-15T10:22:42.637Z,102.32
2022-11-15T10:23:41.085Z,103.61
2022-11-15T10:24:36.081Z,102.64
2022-11-15T10:25:46.634Z,103.61
2022-11-15T10:26:45.600Z,103.12
2022-11-15T10:27:57.866Z,87.33
2022-11-15T10:28:56.097Z,90.40
2022-11-15T10:29:53.520Z,90.40
2022-11-15T10:30:38.109Z,90.07
2022-11-15T10:31:51.261Z,86.85
2022-11-15T10:32:43.027Z,88.14
2022-11-15T10:33:44.042Z,88.30
2022-11-15T10:34:45.470Z,87.82
2022-11-15T10:35:38.403Z,87.33
2022-11-15T10:36:49.120Z,87.98
2022-11-15T10:37:40.290Z,87.66
2022-11-15T10:38:39.939Z,87.17
2022-11-15T10:39:47.502Z,88.30
2022-11-15T10:40:41.909Z,88.30
2022-11-15T10:41:48.540Z,93.30
2022-11-15T10:42:36.658Z,88.95
2022-11-15T10:43:44.555Z,87.82
2022-11-15T10:44:37.261Z,88.46
2022-11-15T10:45:51.905Z,89.59
2022-11-15T10:46:47.765Z,88.78
2022-11-15T10:47:39.808Z,87.82
2022-11-15T10:48:35.968Z,88.62
2022-11-15T10:49:36.505Z,88.14
2022-11-15T10:50:46.490Z,86.69
2022-11-15T10:51:41.584Z,86.04
2022-11-15T10:52:43.119Z,93.13
2022-11-15T10:53:36.753Z,94.58
2022-11-15T10:54:40.829Z,94.42
2022-11-15T10:55:36.304Z,92.97
2022-11-15T10:56:40.076Z,87.98
2022-11-15T10:57:44.384Z,87.98
2022-11-15T10:58:44.470Z,88.62
2022-11-15T10:59:39.017Z,88.62
2022-11-15T11:00:48.881Z,89.43
2022-11-15T11:01:43.208Z,88.95
2022-11-15T11:02:36.263Z,90.07
2022-11-15T11:03:38.348Z,89.59
2022-11-15T11:04:52.200Z,88.46
2022-11-15T11:05:45.923Z,42.22
2022-11-15T11:06:39.982Z,42.06
2022-11-15T11:07:50.319Z,100.22
2022-11-15T11:08:37.759Z,101.51
2022-11-15T11:09:39.539Z,104.09
2022-11-15T11:10:51.524Z,106.19
2022-11-15T11:11:37.663Z,104.41
2022-11-15T11:12:36.183Z,103.93
2022-11-15T11:13:39.527Z,105.06
2022-11-15T11:14:44.676Z,103.93
2022-11-15T11:15:48.908Z,104.25
2022-11-15T11:16:41.955Z,103.45
2022-11-15T11:17:37.461Z,103.45
2022-11-15T11:18:39.183Z,102.80
2022-11-15T11:19:40.870Z,102.64
2022-11-15T11:20:46.277Z,102.80
2022-11-15T11:21:48.819Z,103.12
2022-11-15T11:22:43.945Z,103.29
2022-11-15T11:23:42.467Z,102.80
2022-11-15T11:24:38.424Z,102.64
2022-11-15T11:25:35.825Z,103.12
2022-11-15T11:26:45.906Z,103.29
2022-11-15T11:27:46.539Z,101.51
2022-11-15T11:28:36.299Z,102.00
2022-11-15T11:29:37.155Z,77.18
2022-11-15T11:30:35.384Z,51.88
2022-11-15T11:31:46.748Z,64.61
2022-11-15T11:32:41.806Z,63.65
2022-11-15T11:33:38.265Z,53.98
2022-11-15T11:34:38.460Z,52.05
2022-11-15T11:35:34.430Z,57.36
2022-11-15T11:36:35.117Z,51.40
2022-11-15T11:37:35.687Z,51.40
2022-11-15T11:38:34.939Z,51.08
2022-11-15T11:39:36.042Z,51.88
2022-11-15T11:40:34.287Z,52.85
2022-11-15T11:41:34.640Z,52.53
2022-11-15T11:42:34.459Z,55.75
2022-11-15T11:43:34.766Z,51.72
2022-11-15T11:44:34.241Z,51.88
2022-11-15T11:45:33.986Z,58.49
2022-11-15T11:46:34.242Z,53.17
2022-11-15T11:47:34.596Z,53.33
2022-11-15T11:48:35.161Z,68.80
2022-11-15T11:49:34.345Z,93.94
2022-11-15T11:50:35.197Z,62.52
2022-11-15T11:51:35.487Z,53.17
2022-11-15T11:52:37.140Z,53.50
2022-11-15T11:53:36.182Z,53.66
2022-11-15T11:54:39.709Z,53.66
2022-11-15T11:55:35.273Z,50.76
2022-11-15T11:56:43.182Z,52.85
2022-11-15T11:57:35.542Z,57.04
2022-11-15T11:58:34.879Z,51.88
2022-11-15T11:59:37.631Z,51.40
2022-11-15T12:00:39.590Z,57.85
2022-11-15T12:01:36.484Z,56.88
2022-11-15T12:02:39.115Z,53.82
2022-11-15T12:03:41.479Z,54.30
2022-11-15T12:04:40.124Z,53.17
2022-11-15T12:05:42.791Z,74.28
2022-11-15T12:06:43.103Z,53.17
2022-11-15T12:07:48.787Z,53.82
2022-11-15T12:08:47.939Z,67.51
2022-11-15T12:09:39.712Z,55.91
2022-11-15T12:10:35.674Z,55.11
2022-11-15T12:11:35.624Z,55.11
2022-11-15T12:12:38.138Z,64.45
2022-11-15T12:13:35.265Z,53.82
2022-11-15T12:14:51.082Z,53.17
2022-11-15T12:15:44.165Z,53.01
2022-11-15T12:16:47.183Z,50.76
2022-11-15T12:17:46.934Z,50.92
2022-11-15T12:18:46.333Z,68.48
2022-11-15T12:19:38.412Z,54.95
2022-11-15T12:20:41.752Z,55.27
2022-11-15T12:21:41.563Z,53.50
2022-11-15T12:22:43.963Z,41.89
2022-11-15T12:23:45.690Z,41.73
2022-11-15T12:24:46.151Z,68.48
2022-11-15T12:25:39.953Z,57.69
2022-11-15T12:26:40.514Z,99.26
2022-11-15T12:27:37.628Z,99.90
2022-11-15T12:28:58.417Z,100.55
2022-11-15T12:29:49.350Z,102.00
2022-11-15T12:30:38.287Z,104.09
2022-11-15T12:31:45.338Z,102.80
2022-11-15T12:32:38.653Z,101.51
2022-11-15T12:33:35.740Z,100.06
2022-11-15T12:34:34.989Z,99.58
2022-11-15T12:35:34.428Z,97.65
2022-11-15T12:36:33.825Z,97.97
2022-11-15T12:37:34.195Z,98.13
2022-11-15T12:38:35.146Z,97.97
2022-11-15T12:39:34.016Z,97.97
2022-11-15T12:40:34.538Z,97.81
2022-11-15T12:41:33.725Z,97.97
2022-11-15T12:42:34.242Z,90.07
2022-11-15T12:43:36.993Z,69.77
2022-11-15T12:44:34.350Z,70.42
2022-11-15T12:45:34.211Z,68.80
2022-11-15T12:46:36.680Z,73.64
2022-11-15T12:47:41.018Z,73.96
